メインページ
METAR-TAF:

METAR-TAF

空港 :

中部国際空港

名古屋, 日本

緯度: 34-51-30N, 経度: 136-48-19E, 海抜: 5m

現時点の気象観測

当レポートは47分前の09:00(UTC)に作成
西の風 11kt
気温 10°C
湿度 53%
気圧 1021 hPa
視程10km以上
高度3000ftの雲はほとんどない
高度5000ftの千切れ雲あり

METAR: RJGG 130900Z 28011KT 9999 FEW030 BKN050 10/01 Q1021 NOSIG

時間: 18:47 (09:47 UTC)

予報

当レポートは4時間40分前の05:07(UTC)に作成
予報は13日の 06時(UTC)から 14日の 12時(UTC)まで有効
西の風 12kt
視程10km以上
高度3000ftの雲はほとんどない
13日の 16時(UTC)から 13日の 18時(UTC)まで徐々に
北西の風 22kt

TAF: RJGG 130507Z 1306/1412 27012KT 9999 FEW030 BECMG 1316/1318 32022KT

4,000以上の空港の気象観測と天気予報(METAR報とTAF報)

利用可能な観測所は地図上に黄色い丸と赤い丸で示す。

丸の上にカーソルを重ねると観測所名を参照できる。

次にクリックすると気象観測と天気予報を参照できる。

マップの切り替え:黒色「×」印の緑ボタンをクリックして拡大、「-」印の緑ボタンをクリックして縮小、緑色の三角印をクリックして隣りの地図に切り替え


METAR-TAF: